Time,TemperatureF,DewpointF,PressureIn,WindDirection,WindDirectionDegrees,WindSpeedMPH,WindSpeedGustMPH,Humidity,HourlyPrecipIn,Conditions,Clouds,dailyrainin,SoftwareType,DateUTC
2013-02-15 14:43:00,64.2,27.7,30.07,WNW,293,0.0,0.0,25,0.01,,,0.01,meteohub,2013-02-15 19:43:00,
2013-02-15 14:44:00,64.0,27.5,30.07,NW,315,0.0,0.0,25,0.01,,,0.01,meteohub,2013-02-15 19:44:00,
2013-02-15 14:46:00,63.9,27.3,30.07,NW,315,0.0,-999.0,25,-99.99,,,0.00,meteohub,2013-02-15 19:46:00,
2013-02-15 14:51:00,64.0,29.3,30.06,NE,45,0.0,0.0,27,0.00,,,0.00,meteohub,2013-02-15 19:51:00,
2013-02-15 14:56:00,63.5,28.0,30.06,SSE,158,0.0,0.0,26,0.00,,,0.00,meteohub,2013-02-15 19:56:00,
2013-02-15 15:01:00,64.0,28.4,30.06,South,180,0.0,0.0,26,0.00,,,0.00,meteohub,2013-02-15 20:01:00,
2013-02-15 15:06:00,64.6,30.7,30.06,SE,135,0.0,0.0,28,0.00,,,0.00,meteohub,2013-02-15 20:06:00,
2013-02-15 15:11:00,64.9,31.1,30.06,ESE,113,0.0,1.0,28,0.00,,,0.00,meteohub,2013-02-15 20:11:00,
2013-02-15 15:17:00,65.7,29.8,30.06,SE,135,0.0,1.0,26,0.00,,,0.00,meteohub,2013-02-15 20:17:00,
2013-02-15 15:22:00,64.6,28.0,30.06,South,180,2.0,3.0,25,0.00,,,0.00,meteohub,2013-02-15 20:22:00,
2013-02-15 15:27:00,65.1,29.3,30.06,North,0,0.0,3.0,26,0.00,,,0.00,meteohub,2013-02-15 20:27:00,
2013-02-15 15:32:00,67.1,30.0,30.06,NW,315,0.0,3.0,25,0.00,,,0.00,meteohub,2013-02-15 20:32:00,
2013-02-15 15:37:00,67.5,29.5,30.06,South,180,0.0,2.0,24,0.00,,,0.00,meteohub,2013-02-15 20:37:00,
2013-02-15 15:42:00,64.9,28.2,30.05,West,270,0.0,4.0,25,0.00,,,0.00,meteohub,2013-02-15 20:42:00,
2013-02-15 15:48:00,64.2,26.6,30.05,West,270,0.0,4.0,24,0.00,,,0.00,meteohub,2013-02-15 20:48:00,
2013-02-15 15:53:00,64.2,26.6,30.04,NW,315,0.0,4.0,24,0.00,,,0.00,meteohub,2013-02-15 20:53:00,
2013-02-15 15:58:00,64.6,28.9,30.05,NW,315,0.0,0.0,26,0.00,,,0.00,meteohub,2013-02-15 20:58:00,
2013-02-15 16:03:00,64.9,29.3,30.05,NW,315,0.0,0.0,26,0.00,,,0.00,meteohub,2013-02-15 21:03:00,
2013-02-15 16:09:00,64.2,25.7,30.05,SW,225,0.0,0.0,23,0.00,,,0.00,meteohub,2013-02-15 21:09:00,
2013-02-15 16:14:00,62.8,26.4,30.05,South,180,0.0,2.0,25,0.00,,,0.00,meteohub,2013-02-15 21:14:00,
2013-02-15 16:19:00,62.4,27.1,30.04,West,270,2.0,2.0,26,0.00,,,0.00,meteohub,2013-02-15 21:19:00,
2013-02-15 16:24:00,61.9,26.6,30.04,West,270,0.0,2.0,26,0.00,,,0.00,meteohub,2013-02-15 21:24:00,
2013-02-15 16:29:00,61.7,27.3,30.05,NW,315,0.0,2.0,27,0.00,,,0.00,meteohub,2013-02-15 21:29:00,
2013-02-15 16:34:00,61.7,26.4,30.05,NW,315,0.0,2.0,26,0.00,,,0.00,meteohub,2013-02-15 21:34:00,
2013-02-15 16:39:00,61.7,26.4,30.04,NW,315,0.0,0.0,26,0.00,,,0.00,meteohub,2013-02-15 21:39:00,
2013-02-15 16:44:00,61.3,27.1,30.04,West,270,0.0,0.0,27,0.00,,,0.00,meteohub,2013-02-15 21:44:00,
2013-02-15 16:50:00,61.5,26.2,30.04,NW,315,0.0,0.0,26,0.00,,,0.00,meteohub,2013-02-15 21:50:00,
2013-02-15 16:55:00,61.9,26.6,30.04,NW,315,0.0,4.0,26,0.00,,,0.00,meteohub,2013-02-15 21:55:00,
2013-02-15 17:00:00,61.9,26.6,30.04,NW,315,0.0,4.0,26,0.00,,,0.00,meteohub,2013-02-15 22:00:00,
2013-02-15 17:05:00,61.3,26.2,30.04,NW,315,0.0,0.0,26,0.00,,,0.00,meteohub,2013-02-15 22:05:00,
2013-02-15 17:10:00,61.0,25.9,30.04,NW,315,0.0,0.0,26,0.00,,,0.00,meteohub,2013-02-15 22:10:00,
2013-02-15 17:15:00,60.6,27.3,30.04,NW,315,0.0,0.0,28,0.00,,,0.00,meteohub,2013-02-15 22:15:00,
2013-02-15 17:20:00,60.3,27.0,30.04,NW,315,0.0,0.0,28,0.00,,,0.00,meteohub,2013-02-15 22:20:00,
2013-02-15 17:25:00,59.9,28.4,30.04,NW,315,0.0,0.0,30,0.00,,,0.00,meteohub,2013-02-15 22:25:00,
2013-02-15 17:30:00,59.5,28.0,30.04,NW,315,0.0,0.0,30,0.00,,,0.00,meteohub,2013-02-15 22:30:00,
2013-02-15 17:35:00,59.2,28.6,30.04,NW,315,0.0,0.0,31,0.00,,,0.00,meteohub,2013-02-15 22:35:00,
2013-02-15 17:41:00,58.6,30.4,30.04,NW,315,0.0,0.0,34,0.00,,,0.00,meteohub,2013-02-15 22:41:00,
2013-02-15 17:46:00,58.1,29.8,30.04,NW,315,0.0,0.0,34,0.00,,,0.00,meteohub,2013-02-15 22:46:00,
2013-02-15 17:51:00,57.6,30.0,30.04,NW,315,0.0,0.0,35,0.00,,,0.00,meteohub,2013-02-15 22:51:00,
2013-02-15 17:56:00,56.8,31.5,30.04,NW,315,0.0,0.0,38,0.00,,,0.00,meteohub,2013-02-15 22:56:00,
2013-02-15 18:01:00,55.9,31.3,30.04,NW,315,0.0,0.0,39,0.00,,,0.00,meteohub,2013-02-15 23:01:00,
2013-02-15 18:07:00,55.0,32.4,30.04,NW,315,0.0,0.0,42,0.00,,,0.00,meteohub,2013-02-15 23:07:00,
2013-02-15 18:12:00,54.3,31.6,30.04,NW,315,0.0,0.0,42,0.00,,,0.00,meteohub,2013-02-15 23:12:00,
2013-02-15 18:17:00,53.6,31.6,30.04,NW,315,0.0,0.0,43,0.00,,,0.00,meteohub,2013-02-15 23:17:00,
2013-02-15 18:22:00,52.9,32.2,30.04,NW,315,0.0,0.0,45,0.00,,,0.00,meteohub,2013-02-15 23:22:00,
2013-02-15 18:27:00,52.3,32.2,30.04,NW,315,0.0,0.0,46,0.00,,,0.00,meteohub,2013-02-15 23:27:00,
2013-02-15 18:32:00,51.8,32.2,30.04,NW,315,0.0,0.0,47,0.00,,,0.00,meteohub,2013-02-15 23:32:00,
2013-02-15 18:37:00,51.3,32.7,30.04,NW,315,0.0,0.0,49,0.00,,,0.00,meteohub,2013-02-15 23:37:00,
2013-02-15 18:42:00,50.9,33.4,30.04,NW,315,0.0,0.0,51,0.00,,,0.00,meteohub,2013-02-15 23:42:00,
2013-02-15 18:47:00,50.4,33.4,30.04,NW,315,0.0,0.0,52,0.00,,,0.00,meteohub,2013-02-15 23:47:00,
2013-02-15 18:52:00,50.0,33.6,30.04,NW,315,0.0,0.0,53,0.00,,,0.00,meteohub,2013-02-15 23:52:00,
2013-02-15 18:58:00,49.5,33.4,30.04,NW,315,0.0,0.0,54,0.00,,,0.00,meteohub,2013-02-15 23:58:00,
2013-02-15 19:03:00,48.9,33.4,30.04,NW,315,0.0,0.0,55,0.00,,,0.00,meteohub,2013-02-16 00:03:00,
2013-02-15 19:08:00,48.6,33.6,30.04,NW,315,0.0,0.0,56,0.00,,,0.00,meteohub,2013-02-16 00:08:00,
2013-02-15 19:13:00,48.2,33.3,30.04,NW,315,0.0,0.0,56,0.00,,,0.00,meteohub,2013-02-16 00:13:00,
2013-02-15 19:18:00,48.0,34.0,30.05,NW,315,0.0,0.0,58,0.00,,,0.00,meteohub,2013-02-16 00:18:00,
2013-02-15 19:23:00,47.8,34.2,30.05,NW,315,0.0,0.0,59,0.00,,,0.00,meteohub,2013-02-16 00:23:00,
2013-02-15 19:28:00,47.7,34.0,30.05,NW,315,0.0,0.0,59,0.00,,,0.00,meteohub,2013-02-16 00:28:00,
2013-02-15 19:33:00,47.3,33.6,30.05,NW,315,0.0,0.0,59,0.00,,,0.00,meteohub,2013-02-16 00:33:00,
2013-02-15 19:39:00,47.1,34.0,30.05,NW,315,0.0,0.0,60,0.00,,,0.00,meteohub,2013-02-16 00:39:00,
2013-02-15 19:45:00,46.9,34.2,30.05,NW,315,0.0,0.0,61,0.00,,,0.00,meteohub,2013-02-16 00:45:00,
2013-02-15 19:50:00,46.9,34.2,30.05,NW,315,0.0,0.0,61,0.00,,,0.00,meteohub,2013-02-16 00:50:00,
2013-02-15 19:55:00,46.8,34.5,30.05,NW,315,0.0,0.0,62,0.00,,,0.00,meteohub,2013-02-16 00:55:00,
2013-02-15 20:00:00,46.4,34.2,30.05,NW,315,0.0,0.0,62,0.00,,,0.00,meteohub,2013-02-16 01:00:00,
2013-02-15 20:05:00,46.0,33.8,30.05,NW,315,0.0,0.0,62,0.00,,,0.00,meteohub,2013-02-16 01:05:00,
2013-02-15 20:11:00,45.7,33.4,30.05,NW,315,0.0,0.0,62,0.00,,,0.00,meteohub,2013-02-16 01:11:00,
2013-02-15 20:16:00,45.3,33.1,30.05,NW,315,0.0,0.0,62,0.00,,,0.00,meteohub,2013-02-16 01:16:00,
2013-02-15 20:21:00,45.1,33.3,30.05,NW,315,0.0,0.0,63,0.00,,,0.00,meteohub,2013-02-16 01:21:00,
2013-02-15 20:26:00,45.0,33.1,30.05,NW,315,0.0,0.0,63,0.00,,,0.00,meteohub,2013-02-16 01:26:00,
2013-02-15 20:31:00,44.8,33.3,30.05,NW,315,0.0,0.0,64,0.00,,,0.00,meteohub,2013-02-16 01:31:00,
2013-02-15 20:36:00,44.6,33.6,30.05,NW,315,0.0,0.0,65,0.00,,,0.00,meteohub,2013-02-16 01:36:00,
2013-02-15 20:41:00,44.4,33.8,30.05,NW,315,0.0,0.0,66,0.00,,,0.00,meteohub,2013-02-16 01:41:00,
2013-02-15 20:46:00,44.2,33.6,30.05,NW,315,0.0,0.0,66,0.00,,,0.00,meteohub,2013-02-16 01:46:00,
2013-02-15 20:52:00,44.2,33.6,30.05,NW,315,0.0,0.0,66,0.00,,,0.00,meteohub,2013-02-16 01:52:00,
2013-02-15 20:57:00,43.7,33.4,30.05,NW,315,0.0,0.0,67,0.00,,,0.00,meteohub,2013-02-16 01:57:00,
2013-02-15 21:02:00,43.7,33.4,30.05,NW,315,0.0,0.0,67,0.00,,,0.00,meteohub,2013-02-16 02:02:00,
2013-02-15 21:07:00,43.7,33.4,30.05,NW,315,0.0,0.0,67,0.00,,,0.00,meteohub,2013-02-16 02:07:00,
2013-02-15 21:12:00,43.3,33.4,30.05,NW,315,0.0,0.0,68,0.00,,,0.00,meteohub,2013-02-16 02:12:00,
2013-02-15 21:17:00,43.0,33.1,30.05,NW,315,0.0,0.0,68,0.00,,,0.00,meteohub,2013-02-16 02:17:00,
2013-02-15 21:23:00,43.0,33.4,30.05,NW,315,0.0,0.0,69,0.00,,,0.00,meteohub,2013-02-16 02:23:00,
2013-02-15 21:28:00,42.8,33.3,30.05,NW,315,0.0,0.0,69,0.00,,,0.00,meteohub,2013-02-16 02:28:00,
2013-02-15 21:33:00,42.6,33.4,30.05,NW,315,0.0,0.0,70,0.00,,,0.00,meteohub,2013-02-16 02:33:00,
2013-02-15 21:38:00,42.4,33.4,30.05,NW,315,0.0,0.0,70,0.00,,,0.00,meteohub,2013-02-16 02:38:00,
2013-02-15 21:43:00,42.1,33.4,30.05,NW,315,0.0,0.0,71,0.00,,,0.00,meteohub,2013-02-16 02:43:00,
2013-02-15 21:49:00,42.1,33.8,30.05,NW,315,0.0,0.0,72,0.00,,,0.00,meteohub,2013-02-16 02:49:00,
2013-02-15 21:54:00,41.9,33.6,30.06,NW,315,0.0,0.0,72,0.00,,,0.00,meteohub,2013-02-16 02:54:00,
2013-02-15 21:59:00,41.7,33.6,30.05,NW,315,0.0,0.0,73,0.00,,,0.00,meteohub,2013-02-16 02:59:00,
2013-02-15 22:04:00,41.7,33.6,30.05,NW,315,0.0,0.0,73,0.00,,,0.00,meteohub,2013-02-16 03:04:00,
2013-02-15 22:09:00,41.5,33.6,30.06,NW,315,0.0,0.0,73,0.00,,,0.00,meteohub,2013-02-16 03:09:00,
2013-02-15 22:14:00,41.4,33.4,30.05,NW,315,0.0,0.0,73,0.00,,,0.00,meteohub,2013-02-16 03:14:00,
2013-02-15 22:19:00,41.2,33.4,30.05,NW,315,0.0,0.0,74,0.00,,,0.00,meteohub,2013-02-16 03:19:00,
2013-02-15 22:24:00,41.2,33.4,30.05,NW,315,0.0,0.0,74,0.00,,,0.00,meteohub,2013-02-16 03:24:00,
2013-02-15 22:30:00,41.2,33.4,30.05,NW,315,0.0,0.0,74,0.00,,,0.00,meteohub,2013-02-16 03:30:00,
2013-02-15 22:35:00,41.0,33.4,30.04,NW,315,0.0,0.0,74,0.00,,,0.00,meteohub,2013-02-16 03:35:00,
2013-02-15 22:40:00,41.0,33.4,30.05,NW,315,0.0,0.0,74,0.00,,,0.00,meteohub,2013-02-16 03:40:00,
2013-02-15 22:45:00,40.8,33.4,30.05,NW,315,0.0,0.0,75,0.00,,,0.00,meteohub,2013-02-16 03:45:00,
2013-02-15 22:50:00,40.8,33.8,30.04,NW,315,0.0,0.0,76,0.00,,,0.00,meteohub,2013-02-16 03:50:00,
2013-02-15 22:55:00,40.6,33.6,30.04,NW,315,0.0,0.0,76,0.00,,,0.00,meteohub,2013-02-16 03:55:00,
2013-02-15 23:01:00,40.6,33.6,30.04,NW,315,0.0,0.0,76,0.00,,,0.00,meteohub,2013-02-16 04:01:00,
2013-02-15 23:06:00,40.6,33.6,30.04,NW,315,0.0,0.0,76,0.00,,,0.00,meteohub,2013-02-16 04:06:00,
2013-02-15 23:11:00,40.5,33.4,30.04,NW,315,0.0,0.0,76,0.00,,,0.00,meteohub,2013-02-16 04:11:00,
2013-02-15 23:16:00,41.2,34.2,30.06,NW,315,0.0,0.0,76,0.00,,,0.00,meteohub,2013-02-16 04:16:00,
2013-02-15 23:21:00,44.2,34.3,30.05,NE,45,0.0,5.0,68,0.00,,,0.00,meteohub,2013-02-16 04:21:00,
2013-02-15 23:26:00,45.9,34.0,30.06,North,0,0.0,5.0,63,0.00,,,0.00,meteohub,2013-02-16 04:26:00,
2013-02-15 23:31:00,46.9,33.8,30.07,NW,315,0.0,4.0,60,0.00,,,0.00,meteohub,2013-02-16 04:31:00,
2013-02-15 23:37:00,47.1,34.0,30.06,East,90,0.0,4.0,60,0.00,,,0.00,meteohub,2013-02-16 04:37:00,
2013-02-15 23:42:00,47.1,34.3,30.06,NE,45,0.0,4.0,61,0.00,,,0.00,meteohub,2013-02-16 04:42:00,
2013-02-15 23:48:00,47.1,34.7,30.06,North,0,0.0,0.0,62,0.00,,,0.00,meteohub,2013-02-16 04:48:00,
2013-02-15 23:53:00,46.9,35.1,30.06,North,0,0.0,0.0,63,0.00,,,0.00,meteohub,2013-02-16 04:53:00,
2013-02-15 23:59:00,46.8,34.9,30.06,North,0,0.0,0.0,63,0.00,,,0.00,meteohub,2013-02-16 04:59:00,